Aviation Digital Data Service (ADDS)

Output produced by METARs form (1531 UTC 20 March 2019)
found at http://www.aviationweather.gov/metar/data/
 
Forecast for: AMD
Text: TAF AMD SARI 201400Z 2015/2112 20005KT 8000 TSRA FEW010 BKN020 FEW050CB TX27/2019Z TN16/2109Z
Forecast period: 1500 to 1900 UTC 20 March 2019
Forecast type: FROM: standard forecast or significant change
Winds: from the SSW (200 degrees) at 6 MPH (5 knots; 2.6 m/s)
Visibility: 5 miles (8 km)
Ceiling: 2000 feet AGL
Clouds: few clouds at 1000 feet AGL
broken clouds at 2000 feet AGL
few clouds at 5000 feet AGL
Weather: TSRA  (rain associated with thunderstorm(s))
Text: BECMG 2019/2021 9999 BKN025
Forecast period: 1900 UTC 20 March 2019 to 0800 UTC 21 March 2019
Forecast type: BECOMING: Conditions expected to become as follows by 2100 UTC 20 March 2019
Winds: from the SSW (200 degrees) at 6 MPH (5 knots; 2.6 m/s)
Visibility: 6 or more miles 10+ km)
Ceiling: 2500 feet AGL
Clouds: broken clouds at 2500 feet AGL
Weather: TSRA  (rain associated with thunderstorm(s))
Text: BECMG 2108/2109 1500 BR SCT015
Forecast period: 0800 to 1200 UTC 21 March 2019
Forecast type: BECOMING: Conditions expected to become as follows by 0900 UTC 21 March 2019
Winds: from the SSW (200 degrees) at 6 MPH (5 knots; 2.6 m/s)
Visibility: 0.93 miles (1.50 km)
Ceiling: at least 12,000 feet AGL
Clouds: scattered clouds at 1500 feet AGL
Weather: BR  (mist)